sensor_id;sensor_type;location;lat;lon;timestamp;pressure;altitude;pressure_sealevel;temperature;humidity
16431;BME280;8325;49.284;7.238;2023-04-06T04:00:21;98940.84;;;-0.58;84.49
16431;BME280;8325;49.284;7.238;2023-04-06T04:04:33;98944.28;;;-0.59;84.97
16431;BME280;8325;49.284;7.238;2023-04-06T04:08:44;98936.44;;;-0.71;84.52
16431;BME280;8325;49.284;7.238;2023-04-06T04:12:56;98951.84;;;-0.71;85.34
16431;BME280;8325;49.284;7.238;2023-04-06T04:17:07;98958.63;;;-0.70;85.56
16431;BME280;8325;49.284;7.238;2023-04-06T04:21:19;98956.59;;;-0.79;85.31
16431;BME280;8325;49.284;7.238;2023-04-06T04:25:31;98954.97;;;-0.80;85.92
16431;BME280;8325;49.284;7.238;2023-04-06T04:29:42;98954.97;;;-0.80;85.79
16431;BME280;8325;49.284;7.238;2023-04-06T04:33:57;98956.69;;;-0.80;86.00
16431;BME280;8325;49.284;7.238;2023-04-06T04:38:13;98952.59;;;-0.83;86.42
16431;BME280;8325;49.284;7.238;2023-04-06T04:42:28;98960.66;;;-0.89;87.10
16431;BME280;8325;49.284;7.238;2023-04-06T04:46:43;98955.59;;;-0.90;87.02
16431;BME280;8325;49.284;7.238;2023-04-06T04:50:56;98963.38;;;-0.92;87.13
16431;BME280;8325;49.284;7.238;2023-04-06T04:55:13;98958.25;;;-0.92;86.80
16431;BME280;8325;49.284;7.238;2023-04-06T04:59:27;98961.16;;;-0.84;86.85
16431;BME280;8325;49.284;7.238;2023-04-06T05:03:47;98964.75;;;-1.01;86.94
16431;BME280;8325;49.284;7.238;2023-04-06T05:08:01;98971.25;;;-0.95;87.15
16431;BME280;8325;49.284;7.238;2023-04-06T05:12:25;98969.97;;;-0.88;86.74
16431;BME280;8325;49.284;7.238;2023-04-06T05:16:52;98971.09;;;-0.92;87.02
16431;BME280;8325;49.284;7.238;2023-04-06T05:21:06;98976.75;;;-0.87;86.43
16431;BME280;8325;49.284;7.238;2023-04-06T05:25:33;98977.38;;;-0.83;86.99
16431;BME280;8325;49.284;7.238;2023-04-06T05:29:55;98981.72;;;-0.28;96.49
16431;BME280;8325;49.284;7.238;2023-04-06T05:34:10;98977.75;;;-0.05;91.63
16431;BME280;8325;49.284;7.238;2023-04-06T05:38:22;98970.69;;;-0.43;88.56
16431;BME280;8325;49.284;7.238;2023-04-06T05:42:37;98975.91;;;-0.44;88.40
16431;BME280;8325;49.284;7.238;2023-04-06T05:46:50;98975.53;;;-0.38;88.16
16431;BME280;8325;49.284;7.238;2023-04-06T05:51:01;98980.56;;;-0.37;88.12
16431;BME280;8325;49.284;7.238;2023-04-06T05:55:25;98966.44;;;-0.30;87.51
16431;BME280;8325;49.284;7.238;2023-04-06T05:59:50;98970.13;;;-0.34;87.68
16431;BME280;8325;49.284;7.238;2023-04-06T06:04:03;98972.00;;;-0.23;87.35
16431;BME280;8325;49.284;7.238;2023-04-06T06:08:17;98980.44;;;-0.21;86.53
16431;BME280;8325;49.284;7.238;2023-04-06T06:12:31;98981.63;;;-0.12;87.11
16431;BME280;8325;49.284;7.238;2023-04-06T06:16:44;98997.50;;;-0.20;87.80
16431;BME280;8325;49.284;7.238;2023-04-06T06:20:58;98991.72;;;-0.24;88.45
16431;BME280;8325;49.284;7.238;2023-04-06T06:25:10;98989.13;;;-0.09;87.62
16431;BME280;8325;49.284;7.238;2023-04-06T06:29:22;98987.56;;;0.15;86.65
16431;BME280;8325;49.284;7.238;2023-04-06T06:33:35;98989.88;;;0.33;85.93
16431;BME280;8325;49.284;7.238;2023-04-06T06:37:46;98980.00;;;0.27;86.48
16431;BME280;8325;49.284;7.238;2023-04-06T06:42:02;98973.00;;;1.07;84.26
16431;BME280;8325;49.284;7.238;2023-04-06T06:46:36;98958.81;;;6.01;65.06
16431;BME280;8325;49.284;7.238;2023-04-06T06:50:48;98952.91;;;8.86;53.27
16431;BME280;8325;49.284;7.238;2023-04-06T06:54:59;98945.63;;;10.50;47.61
16431;BME280;8325;49.284;7.238;2023-04-06T06:59:11;98952.66;;;10.66;47.12
16431;BME280;8325;49.284;7.238;2023-04-06T07:03:24;98952.16;;;10.29;47.52
16431;BME280;8325;49.284;7.238;2023-04-06T07:07:35;98966.06;;;9.11;52.40
16431;BME280;8325;49.284;7.238;2023-04-06T07:11:48;98960.28;;;7.83;55.54
16431;BME280;8325;49.284;7.238;2023-04-06T07:15:59;98956.06;;;7.82;55.73
16431;BME280;8325;49.284;7.238;2023-04-06T07:20:12;98964.69;;;7.55;57.09
16431;BME280;8325;49.284;7.238;2023-04-06T07:24:24;98956.16;;;7.63;57.24
16431;BME280;8325;49.284;7.238;2023-04-06T07:28:36;98954.66;;;8.24;56.28
16431;BME280;8325;49.284;7.238;2023-04-06T07:32:48;98958.97;;;7.79;56.08
16431;BME280;8325;49.284;7.238;2023-04-06T07:37:00;98956.25;;;7.06;59.29
16431;BME280;8325;49.284;7.238;2023-04-06T07:41:14;98954.72;;;7.51;58.44
16431;BME280;8325;49.284;7.238;2023-04-06T07:45:27;98944.81;;;7.64;58.39
16431;BME280;8325;49.284;7.238;2023-04-06T07:49:39;98941.22;;;8.11;57.89
16431;BME280;8325;49.284;7.238;2023-04-06T07:53:51;98933.78;;;8.51;53.95
16431;BME280;8325;49.284;7.238;2023-04-06T07:58:03;98922.94;;;8.38;51.83
16431;BME280;8325;49.284;7.238;2023-04-06T08:02:14;98924.94;;;8.26;52.03
16431;BME280;8325;49.284;7.238;2023-04-06T08:06:26;98926.75;;;8.34;52.92
16431;BME280;8325;49.284;7.238;2023-04-06T08:10:38;98924.16;;;8.34;52.16
16431;BME280;8325;49.284;7.238;2023-04-06T08:14:49;98922.94;;;8.38;51.50
16431;BME280;8325;49.284;7.238;2023-04-06T08:19:01;98931.94;;;8.44;48.81
16431;BME280;8325;49.284;7.238;2023-04-06T08:23:13;98938.69;;;8.55;48.17
16431;BME280;8325;49.284;7.238;2023-04-06T08:27:24;98938.50;;;8.74;49.45
16431;BME280;8325;49.284;7.238;2023-04-06T08:31:36;98941.47;;;8.79;48.87
16431;BME280;8325;49.284;7.238;2023-04-06T08:35:48;98935.13;;;8.82;49.52
16431;BME280;8325;49.284;7.238;2023-04-06T08:39:59;98934.00;;;8.84;48.60
16431;BME280;8325;49.284;7.238;2023-04-06T08:44:11;98940.41;;;8.90;48.42
16431;BME280;8325;49.284;7.238;2023-04-06T08:48:23;98940.59;;;8.96;47.69
16431;BME280;8325;49.284;7.238;2023-04-06T08:52:35;98942.53;;;8.94;47.60
16431;BME280;8325;49.284;7.238;2023-04-06T08:56:47;98937.19;;;8.96;47.78
16431;BME280;8325;49.284;7.238;2023-04-06T09:01:00;98951.06;;;9.05;46.81
16431;BME280;8325;49.284;7.238;2023-04-06T09:05:13;98938.00;;;8.96;46.88
16431;BME280;8325;49.284;7.238;2023-04-06T09:09:24;98939.56;;;8.89;47.25
16431;BME280;8325;49.284;7.238;2023-04-06T09:13:50;98945.13;;;8.94;47.61
16431;BME280;8325;49.284;7.238;2023-04-06T09:18:03;98952.41;;;9.09;47.88
16431;BME280;8325;49.284;7.238;2023-04-06T09:22:14;98946.56;;;9.15;48.15
16431;BME280;8325;49.284;7.238;2023-04-06T09:26:26;98940.06;;;9.19;46.97
16431;BME280;8325;49.284;7.238;2023-04-06T09:30:47;98947.94;;;9.35;47.62
16431;BME280;8325;49.284;7.238;2023-04-06T09:35:08;98937.97;;;9.65;47.97
16431;BME280;8325;49.284;7.238;2023-04-06T09:39:21;98936.38;;;9.80;47.32
16431;BME280;8325;49.284;7.238;2023-04-06T09:43:34;98928.75;;;9.95;47.73
16431;BME280;8325;49.284;7.238;2023-04-06T09:47:45;98935.13;;;10.09;46.09
16431;BME280;8325;49.284;7.238;2023-04-06T09:52:00;98935.50;;;10.22;46.08
16431;BME280;8325;49.284;7.238;2023-04-06T09:56:16;98933.91;;;10.38;45.11
16431;BME280;8325;49.284;7.238;2023-04-06T10:00:34;98936.66;;;10.36;44.81
16431;BME280;8325;49.284;7.238;2023-04-06T10:04:59;98924.41;;;10.45;44.42
16431;BME280;8325;49.284;7.238;2023-04-06T10:09:13;98917.25;;;10.47;44.61
16431;BME280;8325;49.284;7.238;2023-04-06T10:13:26;98917.25;;;10.47;44.95
16431;BME280;8325;49.284;7.238;2023-04-06T10:17:38;98916.88;;;10.66;44.99
16431;BME280;8325;49.284;7.238;2023-04-06T10:21:51;98911.34;;;10.69;44.53
16431;BME280;8325;49.284;7.238;2023-04-06T10:26:05;98920.47;;;10.65;43.92
16431;BME280;8325;49.284;7.238;2023-04-06T10:30:23;98924.03;;;10.80;43.33
16431;BME280;8325;49.284;7.238;2023-04-06T10:34:35;98918.50;;;10.67;41.20
16431;BME280;8325;49.284;7.238;2023-04-06T10:38:47;98909.34;;;10.88;42.60
16431;BME280;8325;49.284;7.238;2023-04-06T10:43:12;98904.88;;;11.04;42.80
16431;BME280;8325;49.284;7.238;2023-04-06T10:47:24;98917.88;;;11.29;43.68
16431;BME280;8325;49.284;7.238;2023-04-06T10:51:37;98907.94;;;11.56;43.87
16431;BME280;8325;49.284;7.238;2023-04-06T10:55:51;98913.22;;;11.79;42.61
16431;BME280;8325;49.284;7.238;2023-04-06T11:00:06;98910.94;;;11.75;40.92
16431;BME280;8325;49.284;7.238;2023-04-06T11:04:22;98903.97;;;11.68;40.65
16431;BME280;8325;49.284;7.238;2023-04-06T11:08:35;98909.28;;;11.83;40.15
16431;BME280;8325;49.284;7.238;2023-04-06T11:12:53;98897.22;;;12.05;38.84
16431;BME280;8325;49.284;7.238;2023-04-06T11:17:05;98891.75;;;12.14;39.59
16431;BME280;8325;49.284;7.238;2023-04-06T11:21:18;98888.56;;;12.19;40.23
16431;BME280;8325;49.284;7.238;2023-04-06T11:25:30;98881.81;;;12.25;39.85
16431;BME280;8325;49.284;7.238;2023-04-06T11:29:44;98879.72;;;12.43;39.90
16431;BME280;8325;49.284;7.238;2023-04-06T11:33:58;98877.88;;;12.29;39.60
16431;BME280;8325;49.284;7.238;2023-04-06T11:38:10;98867.28;;;12.22;40.22
16431;BME280;8325;49.284;7.238;2023-04-06T11:42:26;98865.06;;;12.34;39.78
16431;BME280;8325;49.284;7.238;2023-04-06T11:46:38;98860.53;;;12.28;41.52
16431;BME280;8325;49.284;7.238;2023-04-06T11:50:58;98867.97;;;12.39;41.59
16431;BME280;8325;49.284;7.238;2023-04-06T11:55:17;98854.16;;;12.45;40.41
16431;BME280;8325;49.284;7.238;2023-04-06T11:59:29;98862.50;;;12.63;42.50
16431;BME280;8325;49.284;7.238;2023-04-06T12:03:41;98852.81;;;12.64;41.10
16431;BME280;8325;49.284;7.238;2023-04-06T12:07:52;98851.63;;;12.52;41.71
16431;BME280;8325;49.284;7.238;2023-04-06T12:12:04;98857.19;;;12.34;41.40
16431;BME280;8325;49.284;7.238;2023-04-06T12:16:16;98860.09;;;12.01;41.29
16431;BME280;8325;49.284;7.238;2023-04-06T12:20:27;98852.50;;;12.06;42.16
16431;BME280;8325;49.284;7.238;2023-04-06T12:24:39;98850.72;;;12.07;41.92
16431;BME280;8325;49.284;7.238;2023-04-06T12:28:50;98850.69;;;11.92;42.22
16431;BME280;8325;49.284;7.238;2023-04-06T12:33:02;98856.19;;;11.97;42.24
16431;BME280;8325;49.284;7.238;2023-04-06T12:37:14;98841.69;;;12.09;42.19
16431;BME280;8325;49.284;7.238;2023-04-06T12:41:27;98856.59;;;12.09;42.39
16431;BME280;8325;49.284;7.238;2023-04-06T12:45:39;98845.31;;;12.08;43.10
16431;BME280;8325;49.284;7.238;2023-04-06T12:49:51;98847.13;;;12.08;43.22
16431;BME280;8325;49.284;7.238;2023-04-06T12:54:03;98833.69;;;12.11;43.92
16431;BME280;8325;49.284;7.238;2023-04-06T12:58:15;98838.13;;;12.25;43.70
16431;BME280;8325;49.284;7.238;2023-04-06T13:02:27;98840.19;;;12.15;44.33
16431;BME280;8325;49.284;7.238;2023-04-06T13:06:39;98848.94;;;12.22;44.87
16431;BME280;8325;49.284;7.238;2023-04-06T13:10:51;98827.78;;;12.09;45.95
16431;BME280;8325;49.284;7.238;2023-04-06T13:15:04;98832.50;;;12.13;46.40
16431;BME280;8325;49.284;7.238;2023-04-06T13:19:15;98826.38;;;12.21;46.57
16431;BME280;8325;49.284;7.238;2023-04-06T13:23:27;98824.84;;;12.27;47.27
16431;BME280;8325;49.284;7.238;2023-04-06T13:27:39;98830.25;;;12.25;47.00
16431;BME280;8325;49.284;7.238;2023-04-06T13:31:51;98818.34;;;12.23;46.59
16431;BME280;8325;49.284;7.238;2023-04-06T13:36:03;98818.13;;;12.09;46.60
16431;BME280;8325;49.284;7.238;2023-04-06T13:40:15;98819.88;;;11.94;46.92
16431;BME280;8325;49.284;7.238;2023-04-06T13:44:37;98831.84;;;11.65;47.61
16431;BME280;8325;49.284;7.238;2023-04-06T13:49:13;98819.47;;;11.59;47.92
16431;BME280;8325;49.284;7.238;2023-04-06T13:53:25;98829.94;;;11.59;47.30
16431;BME280;8325;49.284;7.238;2023-04-06T13:57:36;98831.34;;;11.39;46.79
16431;BME280;8325;49.284;7.238;2023-04-06T14:01:49;98828.44;;;11.34;48.34
16431;BME280;8325;49.284;7.238;2023-04-06T14:06:00;98829.59;;;11.31;50.84
16431;BME280;8325;49.284;7.238;2023-04-06T14:10:26;98827.66;;;11.33;50.85
16431;BME280;8325;49.284;7.238;2023-04-06T14:14:39;98826.88;;;11.24;50.82
16431;BME280;8325;49.284;7.238;2023-04-06T14:18:50;98817.25;;;11.17;51.34
16431;BME280;8325;49.284;7.238;2023-04-06T14:23:03;98819.66;;;11.26;51.82
16431;BME280;8325;49.284;7.238;2023-04-06T14:27:15;98818.97;;;11.33;51.88
16431;BME280;8325;49.284;7.238;2023-04-06T14:31:27;98813.72;;;11.33;51.87
16431;BME280;8325;49.284;7.238;2023-04-06T14:35:38;98820.00;;;11.23;52.39
16431;BME280;8325;49.284;7.238;2023-04-06T14:39:50;98815.44;;;11.17;53.27
16431;BME280;8325;49.284;7.238;2023-04-06T14:44:02;98820.25;;;11.05;53.56
16431;BME280;8325;49.284;7.238;2023-04-06T14:48:14;98817.66;;;10.97;54.85
16431;BME280;8325;49.284;7.238;2023-04-06T14:52:27;98824.28;;;10.77;55.56
16431;BME280;8325;49.284;7.238;2023-04-06T14:56:41;98830.63;;;10.74;56.47
16431;BME280;8325;49.284;7.238;2023-04-06T15:00:58;98826.75;;;10.62;57.28
16431;BME280;8325;49.284;7.238;2023-04-06T15:05:10;98822.69;;;10.59;58.16
16431;BME280;8325;49.284;7.238;2023-04-06T15:09:22;98825.47;;;10.58;58.07
16431;BME280;8325;49.284;7.238;2023-04-06T15:13:34;98834.28;;;10.57;59.50
16431;BME280;8325;49.284;7.238;2023-04-06T15:17:45;98822.88;;;10.50;61.45
16431;BME280;8325;49.284;7.238;2023-04-06T15:21:57;98842.31;;;10.39;61.98
16431;BME280;8325;49.284;7.238;2023-04-06T15:26:11;98838.41;;;10.27;64.62
16431;BME280;8325;49.284;7.238;2023-04-06T15:30:23;98839.69;;;10.14;67.11
16431;BME280;8325;49.284;7.238;2023-04-06T15:34:34;98842.00;;;10.01;69.57
16431;BME280;8325;49.284;7.238;2023-04-06T15:38:46;98844.94;;;9.98;70.62
16431;BME280;8325;49.284;7.238;2023-04-06T15:42:57;98848.16;;;9.84;74.45
16431;BME280;8325;49.284;7.238;2023-04-06T15:47:09;98846.03;;;9.71;76.01
16431;BME280;8325;49.284;7.238;2023-04-06T15:51:20;98848.66;;;9.71;77.22
16431;BME280;8325;49.284;7.238;2023-04-06T15:55:32;98847.63;;;9.48;79.50
16431;BME280;8325;49.284;7.238;2023-04-06T15:59:44;98849.88;;;9.34;81.46
16431;BME280;8325;49.284;7.238;2023-04-06T16:03:55;98841.88;;;9.28;82.35
16431;BME280;8325;49.284;7.238;2023-04-06T16:08:07;98837.78;;;9.25;84.03
16431;BME280;8325;49.284;7.238;2023-04-06T16:12:19;98837.75;;;9.17;84.00
16431;BME280;8325;49.284;7.238;2023-04-06T16:16:31;98842.94;;;9.09;84.99
16431;BME280;8325;49.284;7.238;2023-04-06T16:20:42;98841.97;;;9.10;86.58
16431;BME280;8325;49.284;7.238;2023-04-06T16:24:55;98841.63;;;9.05;87.99
16431;BME280;8325;49.284;7.238;2023-04-06T16:29:06;98838.63;;;8.91;89.84
16431;BME280;8325;49.284;7.238;2023-04-06T16:33:18;98837.34;;;8.95;90.10
16431;BME280;8325;49.284;7.238;2023-04-06T16:37:30;98840.75;;;8.88;91.42
16431;BME280;8325;49.284;7.238;2023-04-06T16:41:42;98837.63;;;8.84;91.81
16431;BME280;8325;49.284;7.238;2023-04-06T16:45:53;98833.69;;;8.80;92.56
16431;BME280;8325;49.284;7.238;2023-04-06T16:50:05;98833.69;;;8.80;93.00
16431;BME280;8325;49.284;7.238;2023-04-06T16:54:17;98831.94;;;8.81;94.24
16431;BME280;8325;49.284;7.238;2023-04-06T16:58:29;98839.25;;;8.85;94.59
16431;BME280;8325;49.284;7.238;2023-04-06T17:02:41;98837.94;;;8.81;94.97
16431;BME280;8325;49.284;7.238;2023-04-06T17:06:53;98837.53;;;8.68;97.41
16431;BME280;8325;49.284;7.238;2023-04-06T17:11:04;98827.59;;;8.63;99.05
16431;BME280;8325;49.284;7.238;2023-04-06T17:15:16;98828.72;;;8.61;100.00
16431;BME280;8325;49.284;7.238;2023-04-06T17:19:27;98831.19;;;8.62;99.82
16431;BME280;8325;49.284;7.238;2023-04-06T17:23:39;98837.81;;;8.57;100.00
16431;BME280;8325;49.284;7.238;2023-04-06T17:27:51;98830.34;;;8.62;99.59
16431;BME280;8325;49.284;7.238;2023-04-06T17:32:03;98830.66;;;8.59;99.78
16431;BME280;8325;49.284;7.238;2023-04-06T17:36:15;98832.41;;;8.50;100.00
16431;BME280;8325;49.284;7.238;2023-04-06T17:40:26;98832.19;;;8.43;100.00
16431;BME280;8325;49.284;7.238;2023-04-06T17:44:38;98836.50;;;8.35;100.00
16431;BME280;8325;49.284;7.238;2023-04-06T17:48:50;98841.47;;;8.28;100.00
16431;BME280;8325;49.284;7.238;2023-04-06T17:53:03;98843.06;;;8.21;100.00
16431;BME280;8325;49.284;7.238;2023-04-06T17:57:15;98845.00;;;8.19;100.00
16431;BME280;8325;49.284;7.238;2023-04-06T18:01:27;98845.38;;;8.06;100.00
16431;BME280;8325;49.284;7.238;2023-04-06T18:05:39;98852.31;;;7.97;100.00
16431;BME280;8325;49.284;7.238;2023-04-06T18:09:51;98858.34;;;7.98;100.00
16431;BME280;8325;49.284;7.238;2023-04-06T18:14:06;98859.81;;;8.00;100.00
16431;BME280;8325;49.284;7.238;2023-04-06T18:18:19;98863.25;;;8.01;100.00
16431;BME280;8325;49.284;7.238;2023-04-06T18:22:34;98855.38;;;7.93;100.00
16431;BME280;8325;49.284;7.238;2023-04-06T18:26:47;98849.13;;;7.86;100.00
16431;BME280;8325;49.284;7.238;2023-04-06T18:30:58;98848.63;;;7.82;100.00
16431;BME280;8325;49.284;7.238;2023-04-06T18:35:10;98840.16;;;7.80;100.00
16431;BME280;8325;49.284;7.238;2023-04-06T18:39:22;98838.22;;;7.82;100.00
16431;BME280;8325;49.284;7.238;2023-04-06T18:43:34;98846.03;;;7.82;100.00
16431;BME280;8325;49.284;7.238;2023-04-06T18:47:45;98855.75;;;7.80;100.00
16431;BME280;8325;49.284;7.238;2023-04-06T18:51:57;98854.56;;;7.74;100.00
16431;BME280;8325;49.284;7.238;2023-04-06T18:56:14;98856.72;;;7.79;100.00
16431;BME280;8325;49.284;7.238;2023-04-06T19:00:26;98847.94;;;7.80;100.00
16431;BME280;8325;49.284;7.238;2023-04-06T19:04:38;98833.03;;;7.82;100.00
16431;BME280;8325;49.284;7.238;2023-04-06T19:08:50;98837.47;;;7.72;100.00
16431;BME280;8325;49.284;7.238;2023-04-06T19:13:02;98840.53;;;7.67;100.00
16431;BME280;8325;49.284;7.238;2023-04-06T19:17:13;98837.31;;;7.55;100.00
16431;BME280;8325;49.284;7.238;2023-04-06T19:21:25;98826.53;;;7.50;100.00
16431;BME280;8325;49.284;7.238;2023-04-06T19:25:37;98828.59;;;7.47;100.00
16431;BME280;8325;49.284;7.238;2023-04-06T19:29:49;98824.91;;;7.49;100.00
16431;BME280;8325;49.284;7.238;2023-04-06T19:34:01;98822.00;;;7.52;100.00
16431;BME280;8325;49.284;7.238;2023-04-06T19:38:13;98821.41;;;7.58;100.00
16431;BME280;8325;49.284;7.238;2023-04-06T19:42:25;98823.63;;;7.53;100.00
16431;BME280;8325;49.284;7.238;2023-04-06T19:46:36;98825.28;;;7.54;100.00
16431;BME280;8325;49.284;7.238;2023-04-06T19:50:51;98823.13;;;7.50;100.00
16431;BME280;8325;49.284;7.238;2023-04-06T19:55:03;98821.56;;;7.39;100.00
16431;BME280;8325;49.284;7.238;2023-04-06T19:59:15;98816.41;;;7.29;100.00
16431;BME280;8325;49.284;7.238;2023-04-06T20:03:28;98816.84;;;7.25;100.00
16431;BME280;8325;49.284;7.238;2023-04-06T20:07:39;98815.88;;;7.26;100.00
16431;BME280;8325;49.284;7.238;2023-04-06T20:11:53;98823.03;;;7.24;100.00
16431;BME280;8325;49.284;7.238;2023-04-06T20:16:05;98813.97;;;7.28;100.00
16431;BME280;8325;49.284;7.238;2023-04-06T20:20:16;98808.66;;;7.20;100.00
16431;BME280;8325;49.284;7.238;2023-04-06T20:24:29;98806.06;;;7.20;100.00
16431;BME280;8325;49.284;7.238;2023-04-06T20:28:41;98806.94;;;7.10;100.00
16431;BME280;8325;49.284;7.238;2023-04-06T20:32:53;98811.03;;;7.13;100.00
16431;BME280;8325;49.284;7.238;2023-04-06T20:37:04;98808.97;;;7.17;100.00
16431;BME280;8325;49.284;7.238;2023-04-06T20:41:16;98811.13;;;7.21;100.00
16431;BME280;8325;49.284;7.238;2023-04-06T20:45:27;98807.72;;;7.21;100.00
16431;BME280;8325;49.284;7.238;2023-04-06T20:49:40;98808.03;;;7.18;100.00
16431;BME280;8325;49.284;7.238;2023-04-06T20:53:51;98809.78;;;7.17;100.00
16431;BME280;8325;49.284;7.238;2023-04-06T20:58:03;98805.25;;;7.19;100.00
16431;BME280;8325;49.284;7.238;2023-04-06T21:02:15;98813.50;;;7.14;100.00
16431;BME280;8325;49.284;7.238;2023-04-06T21:06:27;98811.25;;;7.20;100.00
16431;BME280;8325;49.284;7.238;2023-04-06T21:10:38;98816.47;;;7.20;100.00
16431;BME280;8325;49.284;7.238;2023-04-06T21:14:50;98814.53;;;7.22;100.00
16431;BME280;8325;49.284;7.238;2023-04-06T21:19:02;98810.75;;;7.16;100.00
16431;BME280;8325;49.284;7.238;2023-04-06T21:23:13;98801.97;;;7.17;100.00
16431;BME280;8325;49.284;7.238;2023-04-06T21:27:25;98805.56;;;7.16;100.00
